Terminal Aerodrome Forecast
Issued by NWS Amarillo, TX

Home | Current Version | Previous Version | Text Only | Print | Product List | Glossary On
Versions: 1 2 3 4 5 6 7 8 9 10 11 12 13 14 15 16 17
000
FTUS44 KAMA 032320
TAFGUY
TAF
KGUY 032320Z 0400/0424 20013G22KT P6SM SCT100 BKN250
     FM040200 17014KT P6SM SCT100 BKN200
     FM041000 21010KT P6SM BKN100
     FM041600 20016G24KT P6SM BKN100=

USA.gov is the U.S. government's official web portal to all federal, state and local government web resources and services.